Pagina principale
METAR-TAF:

METAR-TAF

Aeroporti :

Maradi, Niger

latitudine: 13-28N, longitudine: 007-05E, altezza: 372 m

Osservazione

Il bollettino è stato emesso 1 ora e 42 minuti fa, alle 12:00 UTC
Vento 10 kt da est/sud-est, variando fra est/nord-est e sud-est
Temperature 31°C
Umidità 14%
Pressione 1014 hPa
Visibilità: 2000 m
polvere diffusa

METAR: DRRM 091200Z 12010KT 060V140 2000 DU NSC 31/00 Q1014

Ora: 14:42 (13:42 UTC)


TAF: mancante

Osservazioni e previsioni meteorologiche di più di 4000 aeroporti (messaggi METAR e TAF).

Le stazioni disponibili sono rappresentate dai dischi gialli e rossi sulla carta.

Puntare il mouse per vedere il nome della stazione.

Clicca sopra per visualizzare le osservazioni e previsioni meteorologiche.

Per cambiare la mappa : fare clic sui pulsanti verdi con una croce nera per ingrandire, il pulsante verde con un trattino per diminuire, o sulla freccia verde per le mappe adiacenti.


METAR-TAF: